createdAt,value
2022-08-25T00:00:22.661Z,18.32
2022-08-25T00:02:55.950Z,18.32
2022-08-25T00:05:32.383Z,18.39
2022-08-25T00:08:06.526Z,18.47
2022-08-25T00:10:39.297Z,18.41
2022-08-25T00:13:08.872Z,18.29
2022-08-25T00:15:38.521Z,18.31
2022-08-25T00:18:19.957Z,18.16
2022-08-25T00:20:51.727Z,18.30
2022-08-25T00:23:23.637Z,18.36
2022-08-25T00:25:53.521Z,18.40
2022-08-25T00:28:23.545Z,18.32
2022-08-25T00:30:53.403Z,18.25
2022-08-25T00:33:23.428Z,18.23
2022-08-25T00:35:53.209Z,18.20
2022-08-25T00:38:32.043Z,18.21
2022-08-25T00:41:26.683Z,18.19
2022-08-25T00:44:07.793Z,18.35
2022-08-25T00:47:03.932Z,18.37
2022-08-25T00:49:47.763Z,18.30
2022-08-25T00:52:21.923Z,18.17
2022-08-25T00:55:16.448Z,18.06
2022-08-25T00:57:51.428Z,18.17
2022-08-25T01:00:37.663Z,18.19
2022-08-25T01:06:42.899Z,18.21
2022-08-25T01:09:40.020Z,18.24
2022-08-25T01:12:20.769Z,18.27
2022-08-25T01:15:09.768Z,18.22
2022-08-25T01:18:23.111Z,18.23
2022-08-25T01:21:20.242Z,18.32
2022-08-25T01:24:36.275Z,18.39
2022-08-25T01:27:23.044Z,18.31
2022-08-25T01:30:11.906Z,18.20
2022-08-25T01:33:15.970Z,18.15
2022-08-25T01:36:09.769Z,18.18
2022-08-25T01:38:56.149Z,18.07
2022-08-25T01:41:59.963Z,18.06
2022-08-25T01:44:51.727Z,18.12
2022-08-25T01:47:59.940Z,18.28
2022-08-25T01:50:46.448Z,18.26
2022-08-25T01:53:36.205Z,18.19
2022-08-25T01:56:26.821Z,18.19
2022-08-25T01:58:57.683Z,18.14
2022-08-25T02:01:32.320Z,18.09
2022-08-25T02:04:01.894Z,18.05
2022-08-25T02:06:35.801Z,18.07
2022-08-25T02:09:10.743Z,18.07
2022-08-25T02:11:43.031Z,18.08
2022-08-25T02:14:15.071Z,18.04
2022-08-25T02:17:03.427Z,18.08
2022-08-25T02:19:54.508Z,18.16
2022-08-25T02:22:41.373Z,18.18
2022-08-25T02:25:31.912Z,18.17
2022-08-25T02:28:40.838Z,18.12
2022-08-25T02:31:47.804Z,18.10
2022-08-25T02:34:32.804Z,18.10
2022-08-25T02:37:11.320Z,18.04
2022-08-25T02:39:50.483Z,18.01
2022-08-25T02:42:31.385Z,18.10
2022-08-25T02:45:05.293Z,18.16
2022-08-25T02:47:38.565Z,18.02
2022-08-25T02:50:50.306Z,17.94
2022-08-25T02:53:39.887Z,18.08
2022-08-25T02:56:27.311Z,18.04
2022-08-25T02:59:07.268Z,17.90
2022-08-25T03:02:02.230Z,17.96
2022-08-25T03:04:39.663Z,17.89
2022-08-25T03:07:10.028Z,17.87
2022-08-25T03:09:42.287Z,17.76
2022-08-25T03:12:12.697Z,17.77
2022-08-25T03:14:48.962Z,17.72
2022-08-25T03:17:45.552Z,17.80
2022-08-25T03:20:31.863Z,17.75
2022-08-25T03:23:47.314Z,17.76
2022-08-25T03:26:51.910Z,17.83
2022-08-25T03:29:36.805Z,17.77
2022-08-25T03:32:10.008Z,17.69
2022-08-25T03:35:03.345Z,17.66
2022-08-25T03:37:56.708Z,17.77
2022-08-25T03:40:39.369Z,17.76
2022-08-25T03:43:23.187Z,17.75
2022-08-25T03:45:58.836Z,17.71
2022-08-25T03:48:43.735Z,17.82
2022-08-25T03:55:13.340Z,17.89
2022-08-25T03:57:57.546Z,17.74
2022-08-25T04:04:26.564Z,17.66
2022-08-25T04:06:56.226Z,17.59
2022-08-25T04:09:28.376Z,17.57
2022-08-25T04:12:11.409Z,17.57
2022-08-25T04:14:42.655Z,17.67
2022-08-25T04:17:12.734Z,17.77
2022-08-25T04:19:47.916Z,17.93
2022-08-25T04:22:23.354Z,17.87
2022-08-25T04:24:53.002Z,17.89
2022-08-25T04:27:22.255Z,17.90
2022-08-25T04:29:51.559Z,17.72
2022-08-25T04:32:20.976Z,17.76
2022-08-25T04:34:51.961Z,17.68
2022-08-25T04:37:21.236Z,17.70
2022-08-25T04:39:50.611Z,17.74
2022-08-25T04:42:20.478Z,17.94
2022-08-25T04:44:49.840Z,17.95
2022-08-25T04:47:19.113Z,17.96
2022-08-25T04:49:48.454Z,18.08
2022-08-25T04:52:19.231Z,18.23
2022-08-25T04:54:49.134Z,18.33
2022-08-25T04:57:21.631Z,18.33
2022-08-25T04:59:51.055Z,18.38
2022-08-25T05:02:20.715Z,18.54
2022-08-25T05:04:50.390Z,18.61
2022-08-25T05:07:21.133Z,18.69
2022-08-25T05:09:50.863Z,18.62
2022-08-25T05:12:20.370Z,18.68
2022-08-25T05:14:49.805Z,18.87
2022-08-25T05:17:19.324Z,18.78
2022-08-25T05:20:18.054Z,18.97
2022-08-25T05:23:32.831Z,19.02
2022-08-25T05:30:28.462Z,19.34
2022-08-25T05:33:47.009Z,19.46
2022-08-25T05:36:38.627Z,19.62
2022-08-25T05:39:11.856Z,19.70
2022-08-25T05:41:43.584Z,19.74
2022-08-25T05:44:19.096Z,19.78
2022-08-25T05:46:56.263Z,19.89
2022-08-25T05:49:29.733Z,19.96
2022-08-25T05:52:03.138Z,20.04
2022-08-25T05:54:37.329Z,20.21
2022-08-25T05:57:07.707Z,20.30
2022-08-25T05:59:37.813Z,20.42
2022-08-25T06:02:24.994Z,20.51
2022-08-25T06:04:54.582Z,20.63
2022-08-25T06:07:27.533Z,20.88
2022-08-25T06:09:58.310Z,21.02
2022-08-25T06:12:27.724Z,21.09
2022-08-25T06:14:59.984Z,21.24
2022-08-25T06:17:29.712Z,21.39
2022-08-25T06:26:28.095Z,21.50
2022-08-25T06:28:58.051Z,21.55
2022-08-25T06:31:33.906Z,21.67
2022-08-25T06:34:05.492Z,21.73
2022-08-25T06:36:37.277Z,21.75
2022-08-25T06:39:07.045Z,21.65
2022-08-25T06:41:39.059Z,21.56
2022-08-25T06:44:09.066Z,21.54
2022-08-25T06:46:39.552Z,21.49
2022-08-25T06:49:09.461Z,21.40
2022-08-25T06:51:39.415Z,21.28
2022-08-25T06:54:10.436Z,21.19
2022-08-25T07:01:13.490Z,21.05
2022-08-25T07:03:52.587Z,21.03
2022-08-25T07:06:23.367Z,21.01
2022-08-25T07:08:56.869Z,20.98
2022-08-25T07:11:27.330Z,20.90
2022-08-25T07:14:01.170Z,20.90
2022-08-25T07:16:40.978Z,20.87
2022-08-25T07:19:15.239Z,20.88
2022-08-25T07:21:47.458Z,20.87
2022-08-25T07:24:20.622Z,20.89
2022-08-25T07:26:51.550Z,20.96
2022-08-25T07:29:32.565Z,21.11
2022-08-25T07:32:08.070Z,21.25
2022-08-25T07:35:05.702Z,21.40
2022-08-25T07:37:49.412Z,21.61
2022-08-25T07:40:23.934Z,21.74
2022-08-25T07:43:03.289Z,21.92
2022-08-25T07:48:53.371Z,21.91
2022-08-25T07:51:28.148Z,21.89
2022-08-25T07:54:06.609Z,21.69
2022-08-25T07:56:39.719Z,21.78
2022-08-25T07:59:12.564Z,21.93
2022-08-25T08:01:43.491Z,22.02
2022-08-25T08:04:12.847Z,22.07
2022-08-25T08:06:42.145Z,22.03
2022-08-25T08:09:14.101Z,21.90
2022-08-25T08:11:53.849Z,21.98
2022-08-25T08:14:23.633Z,22.04
2022-08-25T08:16:54.951Z,22.08
2022-08-25T08:19:24.326Z,22.25
2022-08-25T08:21:54.322Z,22.50
2022-08-25T08:24:44.244Z,22.70
2022-08-25T08:27:15.335Z,22.83
2022-08-25T08:29:45.939Z,23.15
2022-08-25T08:32:18.699Z,23.19
2022-08-25T08:34:51.321Z,23.04
2022-08-25T08:37:23.012Z,22.99
2022-08-25T08:39:53.800Z,22.89
2022-08-25T08:42:50.618Z,23.00
2022-08-25T08:45:35.326Z,23.08
2022-08-25T08:48:35.890Z,23.46
2022-08-25T08:51:19.540Z,24.08
2022-08-25T08:53:57.789Z,24.55
2022-08-25T08:56:31.681Z,24.75
2022-08-25T08:59:06.649Z,24.81
2022-08-25T09:01:46.946Z,25.02
2022-08-25T09:04:34.250Z,24.93
2022-08-25T09:07:10.493Z,24.87
2022-08-25T09:09:43.331Z,24.95
2022-08-25T09:12:18.875Z,24.87
2022-08-25T09:15:12.219Z,24.92
2022-08-25T09:18:02.808Z,25.10
2022-08-25T09:20:53.182Z,25.53
2022-08-25T09:23:44.225Z,26.05
2022-08-25T09:26:34.392Z,26.06
2022-08-25T09:29:16.301Z,26.35
2022-08-25T09:31:46.811Z,26.23
2022-08-25T09:34:21.221Z,25.62
2022-08-25T09:36:53.476Z,25.43
2022-08-25T09:39:23.446Z,25.75
2022-08-25T09:41:56.220Z,25.75
2022-08-25T09:44:28.126Z,25.68
2022-08-25T09:47:05.295Z,25.65
2022-08-25T09:49:41.813Z,25.72
2022-08-25T09:52:41.285Z,25.88
2022-08-25T09:55:32.515Z,26.25
2022-08-25T09:58:01.970Z,26.32
2022-08-25T10:00:38.765Z,26.64
2022-08-25T10:03:15.561Z,26.70
2022-08-25T10:06:04.523Z,27.64
2022-08-25T10:08:39.644Z,28.23
2022-08-25T10:11:13.135Z,28.43
2022-08-25T10:13:47.870Z,28.64
2022-08-25T10:16:30.832Z,28.38
2022-08-25T10:19:08.218Z,27.28
2022-08-25T10:21:39.884Z,27.43
2022-08-25T10:24:12.948Z,27.63
2022-08-25T10:26:56.952Z,27.82
2022-08-25T10:29:55.350Z,28.16
2022-08-25T10:32:40.291Z,28.05
2022-08-25T10:35:14.974Z,27.64
2022-08-25T10:38:00.354Z,27.50
2022-08-25T10:40:39.787Z,27.48
2022-08-25T10:43:25.661Z,27.11
2022-08-25T10:46:08.305Z,27.36
2022-08-25T10:48:53.469Z,28.02
2022-08-25T10:51:42.381Z,28.58
2022-08-25T10:54:30.363Z,28.93
2022-08-25T10:57:10.313Z,29.40
2022-08-25T10:59:58.923Z,30.64
2022-08-25T11:03:03.358Z,30.33
2022-08-25T11:05:42.280Z,30.33
2022-08-25T11:08:16.793Z,30.86
2022-08-25T11:10:52.057Z,31.04
2022-08-25T11:13:32.988Z,31.73
2022-08-25T11:16:17.577Z,31.08
2022-08-25T11:18:56.702Z,30.77
2022-08-25T11:21:36.195Z,30.40
2022-08-25T11:24:21.296Z,30.13
2022-08-25T11:26:57.406Z,29.88
2022-08-25T11:29:36.950Z,29.69
2022-08-25T11:32:09.370Z,29.01
2022-08-25T11:34:42.451Z,29.81
2022-08-25T11:37:23.671Z,30.62
2022-08-25T11:40:38.161Z,30.74
2022-08-25T11:43:28.551Z,30.92
2022-08-25T11:46:21.107Z,32.03
2022-08-25T11:49:04.697Z,33.57
2022-08-25T11:51:43.293Z,34.83
2022-08-25T11:54:26.529Z,35.19
2022-08-25T11:57:06.628Z,35.14
2022-08-25T12:00:06.234Z,34.78
2022-08-25T12:02:41.448Z,34.02
2022-08-25T12:05:29.547Z,32.87
2022-08-25T12:08:23.586Z,31.50
2022-08-25T12:11:01.331Z,31.28
2022-08-25T12:13:47.556Z,31.15
2022-08-25T12:16:44.452Z,30.63
2022-08-25T12:23:10.248Z,29.28
2022-08-25T12:25:54.262Z,29.09
2022-08-25T12:28:53.957Z,30.05
2022-08-25T12:31:38.914Z,30.80
2022-08-25T12:34:38.396Z,30.19
2022-08-25T12:37:15.645Z,31.23
2022-08-25T12:40:13.934Z,31.29
2022-08-25T12:43:12.953Z,31.32
2022-08-25T12:45:53.017Z,30.88
2022-08-25T12:49:06.517Z,30.51
2022-08-25T12:51:57.362Z,31.67
2022-08-25T12:54:48.297Z,35.37
2022-08-25T12:57:42.117Z,37.23
2022-08-25T13:00:22.681Z,39.77
2022-08-25T13:03:22.308Z,40.67
2022-08-25T13:06:23.426Z,39.07
2022-08-25T13:10:01.964Z,39.51
2022-08-25T13:12:39.126Z,39.59
2022-08-25T13:15:14.972Z,38.73
2022-08-25T13:17:44.228Z,37.69
2022-08-25T13:20:20.230Z,36.89
2022-08-25T13:23:00.658Z,36.94
2022-08-25T13:25:33.341Z,37.68
2022-08-25T13:28:06.830Z,37.49
2022-08-25T13:30:42.850Z,36.90
2022-08-25T13:33:20.559Z,36.56
2022-08-25T13:36:14.151Z,36.12
2022-08-25T13:38:45.739Z,36.94
2022-08-25T13:41:28.658Z,37.77
2022-08-25T13:44:01.828Z,37.75
2022-08-25T13:46:35.472Z,38.28
2022-08-25T13:49:08.743Z,38.48
2022-08-25T13:51:41.697Z,38.06
2022-08-25T13:54:29.664Z,37.90
2022-08-25T13:57:13.389Z,38.18
2022-08-25T14:00:10.681Z,37.04
2022-08-25T14:02:50.790Z,35.33
2022-08-25T14:05:40.750Z,33.71
2022-08-25T14:08:31.983Z,32.48
2022-08-25T14:11:14.848Z,31.86
2022-08-25T14:13:45.841Z,31.39
2022-08-25T14:16:23.247Z,31.03
2022-08-25T14:19:00.916Z,30.69
2022-08-25T14:21:34.843Z,30.37
2022-08-25T14:24:11.061Z,30.04
2022-08-25T14:26:40.392Z,29.83
2022-08-25T14:29:26.757Z,29.67
2022-08-25T14:31:57.846Z,29.57
2022-08-25T14:34:34.179Z,29.60
2022-08-25T14:37:04.166Z,30.24
2022-08-25T14:39:34.666Z,30.72
2022-08-25T14:42:04.541Z,34.13
2022-08-25T14:44:33.944Z,38.28
2022-08-25T14:47:05.565Z,40.83
2022-08-25T14:49:42.709Z,42.70
2022-08-25T14:52:19.666Z,43.97
2022-08-25T14:54:52.626Z,44.63
2022-08-25T14:57:22.707Z,45.17
2022-08-25T14:59:54.013Z,45.23
2022-08-25T15:02:29.341Z,46.04
2022-08-25T15:05:12.775Z,46.21
2022-08-25T15:07:59.556Z,47.13
2022-08-25T15:10:29.789Z,46.25
2022-08-25T15:12:59.470Z,46.54
2022-08-25T15:15:28.993Z,47.11
2022-08-25T15:18:01.256Z,46.74
2022-08-25T15:20:33.076Z,46.98
2022-08-25T15:23:03.543Z,46.27
2022-08-25T15:25:34.502Z,46.43
2022-08-25T15:28:09.809Z,46.63
2022-08-25T15:30:42.105Z,46.71
2022-08-25T15:33:14.792Z,46.95
2022-08-25T15:35:46.334Z,46.48
2022-08-25T15:38:15.950Z,46.77
2022-08-25T15:40:45.540Z,46.91
2022-08-25T15:43:15.670Z,46.78
2022-08-25T15:45:46.466Z,46.50
2022-08-25T15:48:16.042Z,45.97
2022-08-25T15:50:47.453Z,45.82
2022-08-25T15:53:21.457Z,44.96
2022-08-25T15:55:52.346Z,44.58
2022-08-25T15:58:23.972Z,41.77
2022-08-25T16:00:56.478Z,41.43
2022-08-25T16:03:26.420Z,42.66
2022-08-25T16:05:57.038Z,43.48
2022-08-25T16:08:26.284Z,43.70
2022-08-25T16:11:26.266Z,44.42
2022-08-25T16:13:58.357Z,44.64
2022-08-25T16:16:30.759Z,44.04
2022-08-25T16:19:02.142Z,43.26
2022-08-25T16:21:42.128Z,43.19
2022-08-25T16:24:17.875Z,43.10
2022-08-25T16:26:48.480Z,42.96
2022-08-25T16:29:18.966Z,42.95
2022-08-25T16:32:06.090Z,42.54
2022-08-25T16:34:36.229Z,42.95
2022-08-25T16:37:07.129Z,42.77
2022-08-25T16:39:36.371Z,42.81
2022-08-25T16:42:09.562Z,42.33
2022-08-25T16:44:40.762Z,42.30
2022-08-25T16:47:09.998Z,42.01
2022-08-25T16:49:43.997Z,41.60
2022-08-25T16:52:33.055Z,41.06
2022-08-25T16:55:15.287Z,40.52
2022-08-25T16:57:48.781Z,40.13
2022-08-25T17:00:23.967Z,39.62
2022-08-25T17:02:59.233Z,39.15
2022-08-25T17:05:37.171Z,38.41
2022-08-25T17:08:21.552Z,37.43
2022-08-25T17:10:50.666Z,36.68
2022-08-25T17:13:19.860Z,35.47
2022-08-25T17:15:52.364Z,33.94
2022-08-25T17:18:21.931Z,32.54
2022-08-25T17:21:00.757Z,31.14
2022-08-25T17:23:32.416Z,30.01
2022-08-25T17:26:04.689Z,29.11
2022-08-25T17:28:34.874Z,28.39
2022-08-25T17:31:05.157Z,27.83
2022-08-25T17:33:34.574Z,27.37
2022-08-25T17:36:05.232Z,26.99
2022-08-25T17:38:36.246Z,26.57
2022-08-25T17:41:08.603Z,25.94
2022-08-25T17:43:41.751Z,25.60
2022-08-25T17:46:12.520Z,25.49
2022-08-25T17:48:43.916Z,25.36
2022-08-25T17:51:16.033Z,25.17
2022-08-25T17:53:53.145Z,24.81
2022-08-25T17:56:27.395Z,24.57
2022-08-25T17:58:57.788Z,24.31
2022-08-25T18:01:31.105Z,24.16
2022-08-25T18:04:01.683Z,23.94
2022-08-25T18:06:31.546Z,23.74
2022-08-25T18:09:03.987Z,23.68
2022-08-25T18:11:34.149Z,23.45
2022-08-25T18:14:10.851Z,23.38
2022-08-25T18:17:01.715Z,23.30
2022-08-25T18:19:32.069Z,23.23
2022-08-25T18:22:04.374Z,23.11
2022-08-25T18:24:35.608Z,22.95
2022-08-25T18:27:05.516Z,22.82
2022-08-25T18:29:35.683Z,22.80
2022-08-25T18:32:05.735Z,22.53
2022-08-25T18:34:36.430Z,22.39
2022-08-25T18:37:23.532Z,22.29
2022-08-25T18:40:11.987Z,22.09
2022-08-25T18:42:44.293Z,21.89
2022-08-25T18:45:13.546Z,21.88
2022-08-25T18:47:43.164Z,21.79
2022-08-25T18:50:12.386Z,21.71
2022-08-25T18:52:42.670Z,21.39
2022-08-25T18:55:19.630Z,21.15
2022-08-25T18:57:49.369Z,20.98
2022-08-25T19:00:24.479Z,20.94
2022-08-25T19:02:57.463Z,21.19
2022-08-25T19:05:32.656Z,21.07
2022-08-25T19:08:05.884Z,20.85
2022-08-25T19:10:37.521Z,20.83
2022-08-25T19:13:08.829Z,20.79
2022-08-25T19:15:39.700Z,20.76
2022-08-25T19:18:10.919Z,20.68
2022-08-25T19:20:40.339Z,20.80
2022-08-25T19:23:10.030Z,20.68
2022-08-25T19:25:42.272Z,20.56
2022-08-25T19:28:13.998Z,20.57
2022-08-25T19:30:49.983Z,20.60
2022-08-25T19:33:42.683Z,20.49
2022-08-25T19:36:10.901Z,20.30
2022-08-25T19:38:40.567Z,20.34
2022-08-25T19:41:14.638Z,20.25
2022-08-25T19:43:55.610Z,20.24
2022-08-25T19:46:32.779Z,20.11
2022-08-25T19:49:07.140Z,20.21
2022-08-25T19:51:39.984Z,19.92
2022-08-25T19:54:10.640Z,19.80
2022-08-25T19:56:43.975Z,19.60
2022-08-25T19:59:24.766Z,19.58
2022-08-25T20:01:54.218Z,19.50
2022-08-25T20:04:24.136Z,19.66
2022-08-25T20:06:55.553Z,19.71
2022-08-25T20:09:39.231Z,19.65
2022-08-25T20:12:12.572Z,19.47
2022-08-25T20:14:41.893Z,19.66
2022-08-25T20:17:24.011Z,19.67
2022-08-25T20:19:56.419Z,19.66
2022-08-25T20:22:27.337Z,19.63
2022-08-25T20:24:58.624Z,19.48
2022-08-25T20:27:35.561Z,19.39
2022-08-25T20:30:16.621Z,19.54
2022-08-25T20:32:46.577Z,19.51
2022-08-25T20:35:16.628Z,19.45
2022-08-25T20:37:47.473Z,19.26
2022-08-25T20:40:25.305Z,19.27
2022-08-25T20:43:02.971Z,19.13
2022-08-25T20:45:32.856Z,19.21
2022-08-25T20:48:02.137Z,19.28
2022-08-25T20:50:33.720Z,19.24
2022-08-25T20:53:02.960Z,19.14
2022-08-25T20:55:33.292Z,19.11
2022-08-25T20:58:14.288Z,19.10
2022-08-25T21:00:44.977Z,19.05
2022-08-25T21:03:14.413Z,18.94
2022-08-25T21:05:44.676Z,19.01
2022-08-25T21:08:14.969Z,19.08
2022-08-25T21:10:44.141Z,18.98
2022-08-25T21:13:15.088Z,18.75
2022-08-25T21:15:48.522Z,18.66
2022-08-25T21:18:17.980Z,18.73
2022-08-25T21:20:47.129Z,18.70
2022-08-25T21:23:16.375Z,18.67
2022-08-25T21:25:45.710Z,18.52
2022-08-25T21:28:16.367Z,18.42
2022-08-25T21:30:47.242Z,18.41
2022-08-25T21:33:16.794Z,18.56
2022-08-25T21:35:46.943Z,18.72
2022-08-25T21:38:16.266Z,18.63
2022-08-25T21:40:45.505Z,18.67
2022-08-25T21:43:19.227Z,18.55
2022-08-25T21:45:49.795Z,18.20
2022-08-25T21:48:19.554Z,18.08
2022-08-25T21:50:48.818Z,18.05
2022-08-25T21:53:18.103Z,18.04
2022-08-25T21:55:47.299Z,18.19
2022-08-25T21:58:17.038Z,18.42
2022-08-25T22:00:47.694Z,18.39
2022-08-25T22:03:16.846Z,18.34
2022-08-25T22:05:45.990Z,18.13
2022-08-25T22:08:17.334Z,18.07
2022-08-25T22:10:48.902Z,18.08
2022-08-25T22:13:19.881Z,17.91
2022-08-25T22:15:52.123Z,17.97
2022-08-25T22:18:21.500Z,18.10
2022-08-25T22:20:51.635Z,18.18
2022-08-25T22:23:21.094Z,18.16
2022-08-25T22:25:50.491Z,17.99
2022-08-25T22:28:20.925Z,18.11
2022-08-25T22:30:51.928Z,18.04
2022-08-25T22:33:21.950Z,18.00
2022-08-25T22:35:54.316Z,17.80
2022-08-25T22:38:29.082Z,17.63
2022-08-25T22:41:03.649Z,17.64
2022-08-25T22:43:32.915Z,17.67
2022-08-25T22:46:05.328Z,17.58
2022-08-25T22:48:35.870Z,17.55
2022-08-25T22:51:09.400Z,17.50
2022-08-25T22:53:40.770Z,17.59
2022-08-25T22:56:12.176Z,17.57
2022-08-25T22:58:42.128Z,17.55
2022-08-25T23:01:22.289Z,17.66
2022-08-25T23:03:51.634Z,17.60
2022-08-25T23:06:25.320Z,17.50
2022-08-25T23:08:55.715Z,17.44
2022-08-25T23:11:29.081Z,17.43
2022-08-25T23:14:02.351Z,17.30
2022-08-25T23:16:33.423Z,17.26
2022-08-25T23:19:02.877Z,17.31
2022-08-25T23:21:49.342Z,17.35
2022-08-25T23:24:30.056Z,17.38
2022-08-25T23:27:01.336Z,17.37
2022-08-25T23:29:36.786Z,17.17
2022-08-25T23:32:23.192Z,17.18
2022-08-25T23:35:00.835Z,17.07
2022-08-25T23:37:30.239Z,17.13
2022-08-25T23:39:59.451Z,17.14
2022-08-25T23:42:29.534Z,17.23
2022-08-25T23:44:59.461Z,17.30
2022-08-25T23:47:39.553Z,17.27
2022-08-25T23:50:09.552Z,17.08
2022-08-25T23:52:38.945Z,17.00
2022-08-25T23:55:09.172Z,16.99
2022-08-25T23:57:39.457Z,16.99
